Time;durP1;ratioP1;P1;durP2;ratioP2;P2;SDS_P1;SDS_P2;PMS_P1;PMS_P2;Temp;Humidity;BMP_temperature;BMP_pressure;BME280_temperature;BME280_humidity;BME280_pressure;Samples;Min_cycle;Max_cycle;Signal;HPM_P1;HPM_P2
2022/07/12 00:02:02;;;;;;;3.60;3.20;;;;;;;;;;8280764;28;20364;-62
2022/07/12 00:06:03;;;;;;;4.38;3.33;;;;;;;;;;8281731;28;20153;-61
2022/07/12 00:10:04;;;;;;;3.67;3.33;;;;;;;;;;8281579;28;20038;-61
2022/07/12 00:14:04;;;;;;;3.70;3.40;;;;;;;;;;8281322;28;20117;-61
2022/07/12 00:18:05;;;;;;;3.25;3.05;;;;;;;;;;8303790;28;20469;-61
2022/07/12 00:22:05;;;;;;;4.18;3.78;;;;;;;;;;8280182;28;20030;-62
2022/07/12 00:26:05;;;;;;;4.00;3.22;;;;;;;;;;8282979;28;20029;-62
2022/07/12 00:30:06;;;;;;;3.40;3.10;;;;;;;;;;8280783;28;20091;-62
2022/07/12 00:34:07;;;;;;;4.93;3.17;;;;;;;;;;8281570;28;20078;-62
2022/07/12 00:38:07;;;;;;;3.60;3.30;;;;;;;;;;8280939;28;20030;-62
2022/07/12 00:42:07;;;;;;;3.85;3.05;;;;;;;;;;8280211;28;20037;-61
2022/07/12 00:46:08;;;;;;;3.53;3.22;;;;;;;;;;8282346;28;20096;-61
2022/07/12 00:50:09;;;;;;;3.38;3.08;;;;;;;;;;8282354;28;20022;-62
2022/07/12 00:54:10;;;;;;;4.15;3.53;;;;;;;;;;8284658;28;20025;-62
2022/07/12 00:58:10;;;;;;;3.75;3.40;;;;;;;;;;8279796;28;20033;-62
2022/07/12 01:02:10;;;;;;;3.77;3.37;;;;;;;;;;8282712;28;20868;-61
2022/07/12 01:06:11;;;;;;;3.47;3.17;;;;;;;;;;8287235;28;20068;-62
2022/07/12 01:10:11;;;;;;;3.95;2.90;;;;;;;;;;8286159;28;20478;-61
2022/07/12 01:14:12;;;;;;;3.30;2.95;;;;;;;;;;8286463;28;20041;-61
2022/07/12 01:18:12;;;;;;;2.80;2.60;;;;;;;;;;8285647;28;20037;-61
2022/07/12 01:22:14;;;;;;;3.13;2.80;;;;;;;;;;8289930;28;20022;-62
2022/07/12 01:26:14;;;;;;;3.40;2.50;;;;;;;;;;8287016;28;20121;-61
2022/07/12 01:30:15;;;;;;;2.67;2.45;;;;;;;;;;8285996;28;20741;-61
2022/07/12 01:34:16;;;;;;;2.75;2.50;;;;;;;;;;8285599;28;20132;-61
2022/07/12 01:38:16;;;;;;;2.55;2.35;;;;;;;;;;8289679;28;20030;-62
2022/07/12 01:42:16;;;;;;;3.72;2.47;;;;;;;;;;8285888;28;20029;-61
2022/07/12 01:46:17;;;;;;;2.83;2.25;;;;;;;;;;8285932;28;20068;-62
2022/07/12 01:50:17;;;;;;;2.38;2.17;;;;;;;;;;8285071;28;20581;-61
2022/07/12 01:54:17;;;;;;;2.50;2.30;;;;;;;;;;8285648;28;20117;-61
2022/07/12 01:58:17;;;;;;;3.50;2.22;;;;;;;;;;8286382;28;20030;-61
2022/07/12 02:02:18;;;;;;;2.50;2.08;;;;;;;;;;8284754;28;20034;-61
2022/07/12 02:06:19;;;;;;;2.20;2.00;;;;;;;;;;8286069;28;20092;-61
2022/07/12 02:10:19;;;;;;;3.83;2.50;;;;;;;;;;8285369;28;20272;-61
2022/07/12 02:14:19;;;;;;;2.08;1.98;;;;;;;;;;8284693;28;20029;-61
2022/07/12 02:18:20;;;;;;;1.97;1.87;;;;;;;;;;8285147;28;20451;-61
2022/07/12 02:22:20;;;;;;;3.63;1.67;;;;;;;;;;8285539;28;20261;-61
2022/07/12 02:26:20;;;;;;;1.98;1.88;;;;;;;;;;8282681;28;20029;-60
2022/07/12 02:30:20;;;;;;;2.25;2.03;;;;;;;;;;8284271;28;20095;-66
2022/07/12 02:34:21;;;;;;;2.20;2.00;;;;;;;;;;8283120;28;20120;-61
2022/07/12 02:38:21;;;;;;;1.98;1.77;;;;;;;;;;8284795;28;20245;-61
2022/07/12 02:42:21;;;;;;;1.73;1.63;;;;;;;;;;8283087;28;20460;-61
2022/07/12 02:46:23;;;;;;;1.92;1.73;;;;;;;;;;8293530;28;20029;-61
2022/07/12 02:50:23;;;;;;;1.85;1.60;;;;;;;;;;8318765;28;20068;-61
2022/07/12 02:54:23;;;;;;;2.33;1.70;;;;;;;;;;8317528;28;20038;-61
2022/07/12 02:58:23;;;;;;;2.28;1.70;;;;;;;;;;8317520;28;20022;-61
2022/07/12 03:02:23;;;;;;;1.58;1.48;;;;;;;;;;8315640;28;20132;-61
2022/07/12 03:06:24;;;;;;;1.55;1.45;;;;;;;;;;8316257;28;20083;-61
2022/07/12 03:10:24;;;;;;;2.58;1.40;;;;;;;;;;8315849;28;20029;-60
2022/07/12 03:14:24;;;;;;;1.50;1.40;;;;;;;;;;8317488;28;20095;-61
2022/07/12 03:18:25;;;;;;;2.00;1.27;;;;;;;;;;8287708;28;20042;-61
2022/07/12 03:22:25;;;;;;;1.38;1.27;;;;;;;;;;8281873;28;20252;-61
2022/07/12 03:26:26;;;;;;;1.27;1.25;;;;;;;;;;8283150;28;20064;-61
2022/07/12 03:30:27;;;;;;;1.30;1.30;;;;;;;;;;8283627;28;20086;-61
2022/07/12 03:34:27;;;;;;;1.60;1.50;;;;;;;;;;8282699;28;20026;-61
2022/07/12 03:38:27;;;;;;;1.40;1.30;;;;;;;;;;8284211;28;20021;-61
2022/07/12 03:42:27;;;;;;;1.63;1.52;;;;;;;;;;8280434;28;20419;-61
2022/07/12 03:46:28;;;;;;;1.30;1.30;;;;;;;;;;8283356;28;20072;-61
2022/07/12 03:50:28;;;;;;;1.67;1.30;;;;;;;;;;8282892;28;20025;-62
2022/07/12 03:54:28;;;;;;;1.17;1.08;;;;;;;;;;8280524;28;20032;-61
2022/07/12 03:58:28;;;;;;;1.50;1.20;;;;;;;;;;8281901;28;20040;-61
2022/07/12 04:02:29;;;;;;;1.20;1.10;;;;;;;;;;8282509;28;20272;-61
2022/07/12 04:06:29;;;;;;;1.15;1.15;;;;;;;;;;8283227;28;20060;-60
2022/07/12 04:10:29;;;;;;;1.00;1.00;;;;;;;;;;8281176;28;20033;-61
2022/07/12 04:14:29;;;;;;;2.60;1.13;;;;;;;;;;8279973;28;20283;-61
2022/07/12 04:18:29;;;;;;;1.13;1.13;;;;;;;;;;8310541;28;20037;-61
2022/07/12 04:22:30;;;;;;;1.35;1.25;;;;;;;;;;8315314;28;20024;-61
2022/07/12 04:26:30;;;;;;;1.05;1.05;;;;;;;;;;8315491;28;20061;-61
2022/07/12 04:30:30;;;;;;;1.13;1.02;;;;;;;;;;8311567;28;20763;-61
2022/07/12 04:34:30;;;;;;;1.20;1.10;;;;;;;;;;8315917;28;20213;-61
2022/07/12 04:38:31;;;;;;;1.27;1.17;;;;;;;;;;8318749;28;20028;-62
2022/07/12 04:42:31;;;;;;;0.80;0.80;;;;;;;;;;8321312;28;20063;-61
2022/07/12 04:46:31;;;;;;;0.90;0.90;;;;;;;;;;8307737;28;20033;-62
2022/07/12 04:50:32;;;;;;;1.10;1.00;;;;;;;;;;8287608;28;20306;-61
2022/07/12 04:54:32;;;;;;;1.00;1.00;;;;;;;;;;8288294;28;20026;-61
2022/07/12 04:58:32;;;;;;;2.28;1.10;;;;;;;;;;8288838;28;20057;-61
2022/07/12 05:02:33;;;;;;;0.90;0.90;;;;;;;;;;8286553;28;20060;-61
2022/07/12 05:06:33;;;;;;;1.00;0.90;;;;;;;;;;8287305;28;20025;-63
2022/07/12 05:10:34;;;;;;;1.00;1.00;;;;;;;;;;8289324;28;20026;-61
2022/07/12 05:14:34;;;;;;;1.10;1.00;;;;;;;;;;8287388;28;20094;-61
2022/07/12 05:18:35;;;;;;;1.70;1.08;;;;;;;;;;8286418;28;20045;-61
2022/07/12 05:22:35;;;;;;;1.25;1.17;;;;;;;;;;8287295;28;20425;-62
2022/07/12 05:26:35;;;;;;;1.10;1.00;;;;;;;;;;8286670;28;20021;-61
2022/07/12 05:30:36;;;;;;;1.50;0.98;;;;;;;;;;8286998;28;20034;-62
2022/07/12 05:34:37;;;;;;;0.90;0.90;;;;;;;;;;8285939;28;20033;-62
2022/07/12 05:38:37;;;;;;;0.90;0.90;;;;;;;;;;8287196;28;20260;-62
2022/07/12 05:42:37;;;;;;;0.98;0.80;;;;;;;;;;8287564;28;20032;-62
2022/07/12 05:46:39;;;;;;;0.90;0.90;;;;;;;;;;8285517;28;20026;-63
2022/07/12 05:50:39;;;;;;;1.02;1.00;;;;;;;;;;8287101;28;20033;-63
2022/07/12 05:54:39;;;;;;;1.00;1.00;;;;;;;;;;8285813;28;20029;-62
2022/07/12 05:58:40;;;;;;;0.98;0.98;;;;;;;;;;8287531;28;20507;-62
2022/07/12 06:02:40;;;;;;;0.90;0.90;;;;;;;;;;8281173;28;20113;-62
2022/07/12 06:06:40;;;;;;;1.38;0.98;;;;;;;;;;8284018;28;20040;-62
2022/07/12 06:10:41;;;;;;;1.02;1.00;;;;;;;;;;8283971;28;20108;-62
2022/07/12 06:14:41;;;;;;;1.10;1.10;;;;;;;;;;8284552;28;20029;-62
2022/07/12 06:18:42;;;;;;;1.17;1.02;;;;;;;;;;8284638;28;20041;-62
2022/07/12 06:22:43;;;;;;;1.75;0.98;;;;;;;;;;8285392;28;20125;-62
2022/07/12 06:26:43;;;;;;;2.85;1.20;;;;;;;;;;8285715;28;20034;-62
2022/07/12 06:30:43;;;;;;;1.47;1.20;;;;;;;;;;8281901;28;20041;-62
2022/07/12 06:34:44;;;;;;;1.50;1.40;;;;;;;;;;8285508;28;20038;-62
2022/07/12 06:38:44;;;;;;;1.88;1.75;;;;;;;;;;8282528;28;20816;-62
2022/07/12 06:42:44;;;;;;;1.95;1.80;;;;;;;;;;8283191;28;20026;-62
2022/07/12 06:46:45;;;;;;;2.88;1.80;;;;;;;;;;8282018;28;20199;-62
2022/07/12 06:50:45;;;;;;;2.63;1.80;;;;;;;;;;8281447;28;20013;-62
2022/07/12 06:54:45;;;;;;;2.17;1.65;;;;;;;;;;8283883;28;20029;-62
2022/07/12 06:58:45;;;;;;;1.55;1.45;;;;;;;;;;8283359;28;20021;-63
2022/07/12 07:02:46;;;;;;;1.87;1.73;;;;;;;;;;8280954;28;20045;-62
2022/07/12 07:06:46;;;;;;;3.08;1.92;;;;;;;;;;8284783;28;20089;-62
2022/07/12 07:10:46;;;;;;;1.95;1.75;;;;;;;;;;8284483;28;20149;-62
2022/07/12 07:14:46;;;;;;;3.75;1.80;;;;;;;;;;8282662;28;20052;-62
2022/07/12 07:18:46;;;;;;;1.85;1.70;;;;;;;;;;8283522;28;20550;-62
2022/07/12 07:22:47;;;;;;;3.45;1.70;;;;;;;;;;8284406;28;20037;-62
2022/07/12 07:26:48;;;;;;;2.22;1.48;;;;;;;;;;8280788;28;20033;-62
2022/07/12 07:30:54;;;;;;;2.00;1.70;;;;;;;;;;8282799;28;20042;-62
2022/07/12 07:34:54;;;;;;;1.40;1.30;;;;;;;;;;8282166;28;20025;-62
2022/07/12 07:38:54;;;;;;;1.08;1.08;;;;;;;;;;8283277;28;20060;-62
2022/07/12 07:42:54;;;;;;;1.33;1.20;;;;;;;;;;8281071;28;20033;-63
2022/07/12 07:46:55;;;;;;;1.50;1.40;;;;;;;;;;8279179;28;20287;-62
2022/07/12 07:50:55;;;;;;;1.23;1.13;;;;;;;;;;8284083;28;20033;-62
2022/07/12 07:54:55;;;;;;;1.15;1.15;;;;;;;;;;8282539;28;20999;-62
2022/07/12 07:58:55;;;;;;;1.88;1.30;;;;;;;;;;8283528;28;20061;-62
2022/07/12 08:02:55;;;;;;;0.90;0.90;;;;;;;;;;8280031;28;20029;-62
2022/07/12 08:06:58;;;;;;;1.87;0.93;;;;;;;;;;8281318;28;20160;-62
2022/07/12 08:10:58;;;;;;;1.02;0.93;;;;;;;;;;8280620;28;21022;-62
2022/07/12 08:14:58;;;;;;;0.75;0.75;;;;;;;;;;8282372;28;20096;-62
2022/07/12 08:18:59;;;;;;;0.80;0.80;;;;;;;;;;8281686;28;20048;-62
2022/07/12 08:22:59;;;;;;;0.90;0.90;;;;;;;;;;8284209;28;20105;-62
2022/07/12 08:26:59;;;;;;;0.87;0.87;;;;;;;;;;8282202;28;20038;-61
2022/07/12 08:30:59;;;;;;;2.42;1.10;;;;;;;;;;8280341;28;20821;-62
2022/07/12 08:35:00;;;;;;;2.40;0.80;;;;;;;;;;8281468;28;20049;-62
2022/07/12 08:39:00;;;;;;;1.25;0.90;;;;;;;;;;8281807;28;20045;-62
2022/07/12 08:43:00;;;;;;;1.20;1.10;;;;;;;;;;8281720;28;20032;-62
2022/07/12 08:47:01;;;;;;;1.25;1.08;;;;;;;;;;8280775;28;20144;-62
2022/07/12 08:51:08;;;;;;;1.63;0.90;;;;;;;;;;8282029;28;20024;-62
2022/07/12 08:55:20;;;;;;;0.98;0.70;;;;;;;;;;8277783;28;20033;-62
2022/07/12 08:59:21;;;;;;;2.63;0.90;;;;;;;;;;8280787;28;20013;-62
2022/07/12 09:03:21;;;;;;;1.23;0.90;;;;;;;;;;8278871;28;20044;-62
2022/07/12 09:07:25;;;;;;;1.23;0.83;;;;;;;;;;8282793;28;20380;-62
2022/07/12 09:11:25;;;;;;;0.85;0.80;;;;;;;;;;8279795;28;20482;-62
2022/07/12 09:15:26;;;;;;;1.13;0.93;;;;;;;;;;8281119;28;20042;-62
2022/07/12 09:19:27;;;;;;;1.33;0.70;;;;;;;;;;8279395;28;20429;-62
2022/07/12 09:23:27;;;;;;;1.42;0.70;;;;;;;;;;8283139;28;20029;-62
2022/07/12 09:27:27;;;;;;;0.65;0.63;;;;;;;;;;8286986;28;20025;-63
2022/07/12 09:31:37;;;;;;;0.95;0.90;;;;;;;;;;8286422;28;20038;-62
2022/07/12 09:39:58;;;;;;;1.15;0.90;;;;;;;;;;8284395;28;20028;-62
2022/07/12 09:43:58;;;;;;;2.38;0.80;;;;;;;;;;8287840;28;20025;-62
2022/07/12 09:47:59;;;;;;;0.90;0.70;;;;;;;;;;8285311;28;20034;-62
2022/07/12 09:52:01;;;;;;;2.00;0.90;;;;;;;;;;8286699;28;20010;-62
2022/07/12 09:56:03;;;;;;;0.70;0.70;;;;;;;;;;8285790;28;20057;-62
2022/07/12 10:00:05;;;;;;;;;;;;;;;;;;8285069;28;20026;-62
2022/07/12 10:04:06;;;;;;;0.77;0.77;;;;;;;;;;8284526;28;20462;-62
2022/07/12 10:08:07;;;;;;;1.07;0.80;;;;;;;;;;8285356;28;20135;-64
2022/07/12 10:12:08;;;;;;;0.80;0.77;;;;;;;;;;8285298;28;20543;-63
2022/07/12 10:16:10;;;;;;;0.60;0.60;;;;;;;;;;8282903;28;20041;-62
2022/07/12 10:20:13;;;;;;;0.85;0.60;;;;;;;;;;8286080;28;20076;-62
2022/07/12 10:24:32;;;;;;;1.27;0.70;;;;;;;;;;8287118;28;20037;-62
2022/07/12 10:28:52;;;;;;;1.15;0.90;;;;;;;;;;8283895;28;20033;-62
2022/07/12 10:32:53;;;;;;;1.05;0.75;;;;;;;;;;8284534;28;20581;-62
2022/07/12 10:36:53;;;;;;;0.70;0.70;;;;;;;;;;8285955;28;20867;-62
2022/07/12 10:40:54;;;;;;;6.15;0.80;;;;;;;;;;8287022;28;20029;-62
2022/07/12 10:45:08;;;;;;;0.97;0.80;;;;;;;;;;8284489;28;20033;-62
2022/07/12 10:49:28;;;;;;;0.52;0.52;;;;;;;;;;8317200;28;20658;-64
2022/07/12 10:53:29;;;;;;;0.70;0.70;;;;;;;;;;8316254;28;20029;-63
2022/07/12 10:57:49;;;;;;;0.67;0.67;;;;;;;;;;8317949;28;20040;-62
2022/07/12 11:01:52;;;;;;;0.77;0.63;;;;;;;;;;8299418;28;20764;-63
2022/07/12 11:05:59;;;;;;;0.73;0.73;;;;;;;;;;8286356;28;20057;-62
2022/07/12 11:09:59;;;;;;;0.80;0.80;;;;;;;;;;8282790;28;20021;-63
2022/07/12 11:14:00;;;;;;;0.60;0.60;;;;;;;;;;8284308;28;20865;-63
2022/07/12 11:18:00;;;;;;;0.70;0.70;;;;;;;;;;8305256;28;20169;-62
2022/07/12 11:22:01;;;;;;;0.70;0.70;;;;;;;;;;8315829;28;20124;-62
2022/07/12 11:26:02;;;;;;;0.70;0.70;;;;;;;;;;8316888;28;20787;-62
2022/07/12 11:30:04;;;;;;;1.13;0.60;;;;;;;;;;8314532;28;20021;-63
2022/07/12 11:34:04;;;;;;;1.15;0.70;;;;;;;;;;8315513;28;20380;-62
2022/07/12 11:38:04;;;;;;;0.70;0.70;;;;;;;;;;8316474;28;20029;-62
2022/07/12 11:42:05;;;;;;;0.60;0.60;;;;;;;;;;8314112;28;20101;-62
2022/07/12 11:46:06;;;;;;;3.03;0.90;;;;;;;;;;8312638;28;20790;-62
2022/07/12 11:50:07;;;;;;;1.40;0.70;;;;;;;;;;8315923;28;20025;-62
2022/07/12 11:54:07;;;;;;;0.70;0.70;;;;;;;;;;8315728;28;20419;-63
2022/07/12 11:58:07;;;;;;;0.70;0.60;;;;;;;;;;8315717;28;20076;-63
2022/07/12 12:02:10;;;;;;;0.70;0.70;;;;;;;;;;8294603;28;20080;-63
2022/07/12 12:06:10;;;;;;;3.63;0.70;;;;;;;;;;8281020;28;20061;-62
2022/07/12 12:10:14;;;;;;;1.43;0.70;;;;;;;;;;8281074;28;20100;-62
2022/07/12 12:14:14;;;;;;;1.90;0.90;;;;;;;;;;8279728;28;20026;-62
2022/07/12 12:18:14;;;;;;;0.90;0.50;;;;;;;;;;8279799;28;20045;-62
2022/07/12 12:22:28;;;;;;;3.72;0.63;;;;;;;;;;8280922;28;20033;-62
2022/07/12 12:26:30;;;;;;;1.20;0.60;;;;;;;;;;8282450;28;20315;-63
2022/07/12 12:30:32;;;;;;;4.00;0.70;;;;;;;;;;8279780;28;20537;-62
2022/07/12 12:34:32;;;;;;;4.32;0.80;;;;;;;;;;8284104;28;20895;-63
2022/07/12 12:38:35;;;;;;;1.65;0.70;;;;;;;;;;8283068;28;20057;-63
2022/07/12 12:42:36;;;;;;;1.17;0.70;;;;;;;;;;8281740;28;20033;-63
2022/07/12 12:46:43;;;;;;;2.58;0.73;;;;;;;;;;8278415;28;20030;-63
2022/07/12 12:50:44;;;;;;;0.70;0.70;;;;;;;;;;8280818;28;20053;-64
2022/07/12 12:54:45;;;;;;;0.60;0.60;;;;;;;;;;8282684;28;20026;-62
2022/07/12 12:58:45;;;;;;;1.93;0.60;;;;;;;;;;8283991;28;20513;-62
2022/07/12 13:02:47;;;;;;;1.30;0.82;;;;;;;;;;8286628;28;20091;-63
2022/07/12 13:06:48;;;;;;;2.80;0.60;;;;;;;;;;8287065;28;20053;-62
2022/07/12 13:11:18;;;;;;;0.90;0.70;;;;;;;;;;8287604;28;20030;-63
2022/07/12 13:15:09;;;;;;;2.92;0.88;;;;;;;;;;8288232;28;20033;-63
2022/07/12 13:19:10;;;;;;;1.75;0.60;;;;;;;;;;8286168;28;20029;-63
2022/07/12 13:23:10;;;;;;;0.65;0.65;;;;;;;;;;8286235;28;20052;-63
2022/07/12 13:27:10;;;;;;;2.92;0.70;;;;;;;;;;8286505;28;20033;-62
2022/07/12 13:31:12;;;;;;;1.02;0.70;;;;;;;;;;8283613;28;20042;-62
2022/07/12 13:35:12;;;;;;;0.82;0.70;;;;;;;;;;8286821;28;20052;-63
2022/07/12 13:43:32;;;;;;;2.78;0.70;;;;;;;;;;8287025;28;20769;-62
2022/07/12 13:47:32;;;;;;;0.70;0.70;;;;;;;;;;8285207;28;20379;-63
2022/07/12 13:51:32;;;;;;;2.00;0.60;;;;;;;;;;8286663;28;20025;-62
2022/07/12 13:55:33;;;;;;;1.83;0.60;;;;;;;;;;8285770;28;20029;-62
2022/07/12 13:59:33;;;;;;;0.70;0.70;;;;;;;;;;8285459;28;20021;-63
2022/07/12 14:03:35;;;;;;;1.15;0.70;;;;;;;;;;8285593;28;20042;-63
2022/07/12 14:07:36;;;;;;;1.13;0.82;;;;;;;;;;8287743;28;20148;-63
2022/07/12 14:11:36;;;;;;;0.70;0.60;;;;;;;;;;8285439;28;20025;-62
2022/07/12 14:15:37;;;;;;;0.80;0.80;;;;;;;;;;8283548;28;20045;-63
2022/07/12 14:19:37;;;;;;;1.77;0.60;;;;;;;;;;8284806;28;20044;-63
2022/07/12 14:23:37;;;;;;;2.43;0.80;;;;;;;;;;8286484;28;20022;-63
2022/07/12 14:27:38;;;;;;;0.60;0.60;;;;;;;;;;8283883;28;20025;-63
2022/07/12 14:31:38;;;;;;;1.70;0.83;;;;;;;;;;8281520;28;20033;-63
2022/07/12 14:35:39;;;;;;;0.88;0.70;;;;;;;;;;8284256;28;20033;-63
2022/07/12 14:39:39;;;;;;;0.73;0.73;;;;;;;;;;8286344;28;20065;-63
2022/07/12 14:43:39;;;;;;;1.92;0.60;;;;;;;;;;8285579;28;20026;-63
2022/07/12 14:47:40;;;;;;;2.78;0.60;;;;;;;;;;8284822;28;20566;-62
2022/07/12 14:51:40;;;;;;;2.10;0.87;;;;;;;;;;8282754;28;20101;-61
2022/07/12 14:55:40;;;;;;;2.30;0.70;;;;;;;;;;8284232;28;20030;-61
2022/07/12 14:59:40;;;;;;;0.65;0.60;;;;;;;;;;8284365;28;20032;-62
2022/07/12 15:03:40;;;;;;;0.60;0.60;;;;;;;;;;8281302;28;20079;-62
2022/07/12 15:07:41;;;;;;;0.75;0.70;;;;;;;;;;8283303;28;20025;-62
2022/07/12 15:11:41;;;;;;;1.07;0.77;;;;;;;;;;8283538;28;20033;-62
2022/07/12 15:15:43;;;;;;;1.35;0.70;;;;;;;;;;8283337;28;20550;-61
2022/07/12 15:19:43;;;;;;;7.70;0.80;;;;;;;;;;8283346;28;20025;-62
2022/07/12 15:23:43;;;;;;;1.03;0.63;;;;;;;;;;8280768;28;20030;-62
2022/07/12 15:27:45;;;;;;;7.55;4.28;;;;;;;;;;8283797;28;20530;-61
2022/07/12 15:31:45;;;;;;;3.60;1.08;;;;;;;;;;8283031;28;20038;-62
2022/07/12 15:35:45;;;;;;;1.40;1.30;;;;;;;;;;8281238;28;20059;-62
2022/07/12 15:39:45;;;;;;;9.85;6.97;;;;;;;;;;8284848;28;20029;-61
2022/07/12 15:43:46;;;;;;;1.00;1.00;;;;;;;;;;8283248;28;20034;-62
2022/07/12 15:47:46;;;;;;;3.20;1.55;;;;;;;;;;8283049;28;20064;-63
2022/07/12 15:56:07;;;;;;;3.70;0.90;;;;;;;;;;8280066;28;20832;-61
2022/07/12 16:00:08;;;;;;;5.35;1.45;;;;;;;;;;8280342;28;20040;-62
2022/07/12 16:04:09;;;;;;;1.27;1.00;;;;;;;;;;8278863;28;20079;-62
2022/07/12 16:08:09;;;;;;;3.40;0.80;;;;;;;;;;8282229;28;20025;-61
2022/07/12 16:12:09;;;;;;;0.70;0.70;;;;;;;;;;8284479;28;20022;-61
2022/07/12 16:16:10;;;;;;;0.60;0.60;;;;;;;;;;8279747;28;20041;-62
2022/07/12 16:20:10;;;;;;;4.30;0.90;;;;;;;;;;8280081;28;20332;-61
2022/07/12 16:24:10;;;;;;;0.70;0.70;;;;;;;;;;8282217;28;20028;-61
2022/07/12 16:28:10;;;;;;;1.10;0.70;;;;;;;;;;8282586;28;20474;-61
2022/07/12 16:32:11;;;;;;;0.95;0.65;;;;;;;;;;8281456;28;20488;-63
2022/07/12 16:36:11;;;;;;;1.70;0.65;;;;;;;;;;8289484;28;20036;-61
2022/07/12 16:40:11;;;;;;;1.90;0.70;;;;;;;;;;8287876;28;20313;-61
2022/07/12 16:44:12;;;;;;;1.05;0.55;;;;;;;;;;8288992;28;20180;-61
2022/07/12 16:48:12;;;;;;;2.90;0.70;;;;;;;;;;8287957;28;20040;-61
2022/07/12 16:52:13;;;;;;;0.60;0.60;;;;;;;;;;8287554;28;21145;-61
2022/07/12 16:56:14;;;;;;;2.40;0.73;;;;;;;;;;8286195;28;20036;-61
2022/07/12 17:00:14;;;;;;;0.70;0.70;;;;;;;;;;8280809;28;20022;-61
2022/07/12 17:04:14;;;;;;;0.60;0.60;;;;;;;;;;8283092;28;20042;-61
2022/07/12 17:08:14;;;;;;;1.35;0.60;;;;;;;;;;8284386;28;20136;-62
2022/07/12 17:12:15;;;;;;;1.70;0.70;;;;;;;;;;8283752;28;20104;-62
2022/07/12 17:16:16;;;;;;;1.48;0.70;;;;;;;;;;8283499;28;20100;-62
2022/07/12 17:20:16;;;;;;;2.55;0.75;;;;;;;;;;8284468;28;20040;-61
2022/07/12 17:24:16;;;;;;;0.80;0.77;;;;;;;;;;8284076;28;20711;-62
2022/07/12 17:28:18;;;;;;;1.77;0.70;;;;;;;;;;8284732;28;20165;-61
2022/07/12 17:32:18;;;;;;;0.65;0.65;;;;;;;;;;8283857;28;20091;-65
2022/07/12 17:36:19;;;;;;;0.67;0.67;;;;;;;;;;8284924;28;20095;-61
2022/07/12 17:40:19;;;;;;;2.38;0.80;;;;;;;;;;8284018;28;20029;-61
2022/07/12 17:44:21;;;;;;;0.70;0.70;;;;;;;;;;8283750;28;20031;-61
2022/07/12 17:48:22;;;;;;;1.35;0.70;;;;;;;;;;8283225;28;20374;-62
2022/07/12 17:52:22;;;;;;;0.70;0.70;;;;;;;;;;8284829;28;20076;-63
2022/07/12 17:56:22;;;;;;;1.05;0.80;;;;;;;;;;8285241;28;20034;-62
2022/07/12 18:00:22;;;;;;;2.03;0.65;;;;;;;;;;8280731;28;20968;-62
2022/07/12 18:04:23;;;;;;;4.35;0.80;;;;;;;;;;8280690;28;20025;-62
2022/07/12 18:08:23;;;;;;;2.57;0.97;;;;;;;;;;8282868;28;20031;-61
2022/07/12 18:16:42;;;;;;;0.85;0.65;;;;;;;;;;8281415;28;20296;-61
2022/07/12 18:20:42;;;;;;;1.15;0.75;;;;;;;;;;8282824;28;20022;-61
2022/07/12 18:24:43;;;;;;;0.80;0.70;;;;;;;;;;8282986;28;20061;-62
2022/07/12 18:28:43;;;;;;;2.30;0.70;;;;;;;;;;8281004;28;20052;-61
2022/07/12 18:32:43;;;;;;;0.60;0.60;;;;;;;;;;8280725;28;20069;-62
2022/07/12 18:36:44;;;;;;;1.40;0.70;;;;;;;;;;8279355;28;20017;-62
2022/07/12 18:40:45;;;;;;;1.90;0.68;;;;;;;;;;8279468;28;20037;-62
2022/07/12 18:44:45;;;;;;;0.70;0.70;;;;;;;;;;8279478;28;20033;-62
2022/07/12 18:48:45;;;;;;;0.80;0.70;;;;;;;;;;8281769;28;20781;-62
2022/07/12 18:52:45;;;;;;;4.43;0.70;;;;;;;;;;8280950;28;20029;-61
2022/07/12 18:56:46;;;;;;;2.38;0.85;;;;;;;;;;8280927;28;20017;-61
2022/07/12 19:00:47;;;;;;;1.37;0.60;;;;;;;;;;8279188;28;20034;-61
2022/07/12 19:04:47;;;;;;;3.58;0.77;;;;;;;;;;8279758;28;20652;-61
2022/07/12 19:08:47;;;;;;;2.50;0.77;;;;;;;;;;8278718;28;20025;-61
2022/07/12 19:12:48;;;;;;;4.97;0.80;;;;;;;;;;8275875;28;20290;-61
2022/07/12 19:16:48;;;;;;;3.63;0.70;;;;;;;;;;8279087;28;20037;-61
2022/07/12 19:20:48;;;;;;;3.40;0.70;;;;;;;;;;8282246;28;20026;-62
2022/07/12 19:24:49;;;;;;;3.40;0.80;;;;;;;;;;8279740;28;20017;-63
2022/07/12 19:28:49;;;;;;;3.65;0.60;;;;;;;;;;8281668;28;20025;-62
2022/07/12 19:32:49;;;;;;;3.25;0.90;;;;;;;;;;8277547;28;20795;-62
2022/07/12 19:36:49;;;;;;;1.13;0.73;;;;;;;;;;8279074;28;20029;-62
2022/07/12 19:40:50;;;;;;;2.08;0.60;;;;;;;;;;8279323;28;20056;-62
2022/07/12 19:44:50;;;;;;;1.23;0.70;;;;;;;;;;8281485;28;20017;-62
2022/07/12 19:48:50;;;;;;;3.08;0.68;;;;;;;;;;8278799;28;20791;-62
2022/07/12 19:52:50;;;;;;;4.63;0.80;;;;;;;;;;8279648;28;20043;-64
2022/07/12 19:56:51;;;;;;;1.23;0.70;;;;;;;;;;8277921;28;21097;-63
2022/07/12 20:00:51;;;;;;;3.03;0.65;;;;;;;;;;8280422;28;20278;-62
2022/07/12 20:04:54;;;;;;;0.52;0.52;;;;;;;;;;8277787;28;20094;-62
2022/07/12 20:08:54;;;;;;;0.93;0.50;;;;;;;;;;8281044;28;20029;-62
2022/07/12 20:12:55;;;;;;;0.60;0.60;;;;;;;;;;8279594;28;20022;-63
2022/07/12 20:16:55;;;;;;;0.90;0.60;;;;;;;;;;8277166;28;20522;-63
2022/07/12 20:20:57;;;;;;;0.70;0.55;;;;;;;;;;8280990;28;20316;-62
2022/07/12 20:24:57;;;;;;;2.05;0.80;;;;;;;;;;8282021;28;20124;-62
2022/07/12 20:28:57;;;;;;;0.90;0.90;;;;;;;;;;8281003;28;20030;-62
2022/07/12 20:37:16;;;;;;;1.95;0.70;;;;;;;;;;8279796;28;20060;-62
2022/07/12 20:41:17;;;;;;;0.60;0.60;;;;;;;;;;8278679;28;20029;-62
2022/07/12 20:45:18;;;;;;;0.80;0.70;;;;;;;;;;8281016;28;20034;-63
2022/07/12 20:49:19;;;;;;;0.88;0.70;;;;;;;;;;8281099;28;20560;-62
2022/07/12 20:53:19;;;;;;;0.77;0.77;;;;;;;;;;8280827;28;20144;-61
2022/07/12 20:57:19;;;;;;;1.00;0.73;;;;;;;;;;8283351;28;20092;-61
2022/07/12 21:01:19;;;;;;;5.20;0.80;;;;;;;;;;8280531;28;20427;-62
2022/07/12 21:05:20;;;;;;;4.90;0.60;;;;;;;;;;8280012;28;20037;-62
2022/07/12 21:09:20;;;;;;;1.13;0.82;;;;;;;;;;8283281;28;20033;-61
2022/07/12 21:13:20;;;;;;;1.88;0.60;;;;;;;;;;8281712;28;20080;-62
2022/07/12 21:17:20;;;;;;;3.70;0.70;;;;;;;;;;8277914;28;20049;-62
2022/07/12 21:21:21;;;;;;;2.33;0.70;;;;;;;;;;8285233;28;20264;-62
2022/07/12 21:25:21;;;;;;;1.92;0.70;;;;;;;;;;8287334;28;20478;-62
2022/07/12 21:29:22;;;;;;;2.75;0.68;;;;;;;;;;8287941;28;20048;-62
2022/07/12 21:33:22;;;;;;;0.75;0.70;;;;;;;;;;8287611;28;20426;-62
2022/07/12 21:37:22;;;;;;;0.80;0.80;;;;;;;;;;8287148;28;20053;-62
2022/07/12 21:41:22;;;;;;;0.60;0.60;;;;;;;;;;8289544;28;20084;-62
2022/07/12 21:45:23;;;;;;;2.50;0.80;;;;;;;;;;8286581;28;20045;-61
2022/07/12 21:49:23;;;;;;;0.77;0.73;;;;;;;;;;8286847;28;20052;-61
2022/07/12 21:53:23;;;;;;;1.02;0.77;;;;;;;;;;8285961;28;20349;-62
2022/07/12 21:57:24;;;;;;;0.60;0.60;;;;;;;;;;8287001;28;20033;-62
2022/07/12 22:01:24;;;;;;;0.60;0.60;;;;;;;;;;8284336;28;21911;-62
2022/07/12 22:05:24;;;;;;;0.75;0.70;;;;;;;;;;8286317;28;20032;-62
2022/07/12 22:09:25;;;;;;;0.70;0.70;;;;;;;;;;8286105;28;20029;-62
2022/07/12 22:13:25;;;;;;;0.70;0.70;;;;;;;;;;8286537;28;20819;-62
2022/07/12 22:17:25;;;;;;;0.70;0.70;;;;;;;;;;8285785;28;20049;-61
2022/07/12 22:21:25;;;;;;;3.53;0.60;;;;;;;;;;8285627;28;20036;-62
2022/07/12 22:25:26;;;;;;;2.60;0.70;;;;;;;;;;8285100;28;20025;-61
2022/07/12 22:29:26;;;;;;;0.93;0.60;;;;;;;;;;8285982;28;20097;-62
2022/07/12 22:33:26;;;;;;;1.48;0.85;;;;;;;;;;8285046;28;20946;-61
2022/07/12 22:37:26;;;;;;;0.60;0.60;;;;;;;;;;8285879;28;20056;-62
2022/07/12 22:41:26;;;;;;;1.35;0.70;;;;;;;;;;8284785;28;20347;-63
2022/07/12 22:45:27;;;;;;;1.85;0.70;;;;;;;;;;8285387;28;20423;-62
2022/07/12 22:49:27;;;;;;;1.02;0.63;;;;;;;;;;8284744;28;20026;-62
2022/07/12 22:53:31;;;;;;;0.60;0.60;;;;;;;;;;8286052;28;20040;-61
2022/07/12 22:57:31;;;;;;;1.35;0.70;;;;;;;;;;8283936;28;20025;-62
2022/07/12 23:01:31;;;;;;;0.60;0.60;;;;;;;;;;8284986;28;20496;-61
2022/07/12 23:05:31;;;;;;;0.60;0.60;;;;;;;;;;8285947;28;20025;-61
2022/07/12 23:09:31;;;;;;;0.50;0.50;;;;;;;;;;8284567;28;20022;-61
2022/07/12 23:13:33;;;;;;;0.50;0.50;;;;;;;;;;8284947;28;20033;-62
2022/07/12 23:17:35;;;;;;;0.52;0.52;;;;;;;;;;8283042;28;20488;-62
2022/07/12 23:21:36;;;;;;;0.98;0.60;;;;;;;;;;8283249;28;20049;-62
2022/07/12 23:25:37;;;;;;;0.52;0.52;;;;;;;;;;8283799;28;20470;-62
2022/07/12 23:29:37;;;;;;;1.88;0.63;;;;;;;;;;8284674;28;20533;-63
2022/07/12 23:33:37;;;;;;;2.15;0.70;;;;;;;;;;8283022;28;20049;-62
2022/07/12 23:37:37;;;;;;;0.63;0.60;;;;;;;;;;8282696;28;20042;-61
2022/07/12 23:41:37;;;;;;;0.50;0.50;;;;;;;;;;8281172;28;20083;-61
2022/07/12 23:45:38;;;;;;;0.70;0.70;;;;;;;;;;8285130;28;20029;-62
2022/07/12 23:49:38;;;;;;;0.70;0.63;;;;;;;;;;8284640;28;20819;-62
2022/07/12 23:53:38;;;;;;;0.75;0.60;;;;;;;;;;8283400;28;20195;-62
2022/07/12 23:57:38;;;;;;;0.50;0.50;;;;;;;;;;8284016;28;20075;-62
